Elizabeth, Pennsylvania
Current Conditions -  °F | °C
As of 5:32 AM on Monday 26 Jan 2015 (Local Time) from KAGC Reporting Station
Light Snow Light Snow  
Wind Chill: 24°   Ceiling: 400
Heat Index: 31°   Visibility: 3mi
Dew Point: 28°   Wind: 7mph
Humidity: 89%   Direction: NA
Pressure: 29.66"   Gusts: NA
Location:  40.27°N, 79.89°W
Report Text: KAGC 261032Z AUTO VRB06KT 3SM -SN BR OVC004 M01/M02 A2966 RMK AO2 P0000 T10061022 TSNO
Loading
Personal Weather Stations






























Interactive Weather Map New forecast layout! Learn more

10-Day Weather Forecast

Advertisements
Track Severe Weather on mobile